Alden, MN (56009)

5:41 PM CDT on July 28, 2016 (GMT -0500)
15797 600th Ave (Baroda) | | Change Station

Elev 1230 ft 43.71 °N, 93.67 °W | Updated 3 minutes ago

Mostly Cloudy
Mostly Cloudy
68.9 °F
Feels Like 68.9 °F
N
5.0
Wind Variable Wind from NE
Gusts 11.0 mph

Today
High -- | Low -- °F
--% Chance of Precip.
Yesterday
High -- | Low -- °F
Precip. -- in
Pressure 30.01 in
Visibility 10.0 miles
Clouds Scattered Clouds 1700 ft
Mostly Cloudy 6500 ft
Mostly Cloudy 7500 ft
Dew Point 64 °F
Humidity 84%
Rainfall 0.00 in
Snow Depth Not available.
5:59 AM 8:41 PM
Waning Crescent, 28% visible
METAR KAEL 282235Z AUTO 04009G15KT 10SM SCT017 BKN065 BKN075 21/18 A3001 RMK AO2
Pressure 30.01 in
Visibility 10.0 miles
Clouds Scattered Clouds 1700 ft
Mostly Cloudy 6500 ft
Mostly Cloudy 7500 ft
Dew Point 64 °F
Humidity 84%
Rainfall 0.00 in
Snow Depth Not available.
5:59 AM 8:41 PM
Waning Crescent, 28% visible
METAR KAEL 282235Z AUTO 04009G15KT 10SM SCT017 BKN065 BKN075 21/18 A3001 RMK AO2

10-Day Weather Forecast

Almanac

Astronomy

Jul. 28, 2016 Rise Set
Actual Time
Civil Twilight
Nautical Twilight
Astronomical Twilight
Moon
Length of Visible Light
Length of Day
Tomorrow will be .
, % of the Moon is Illuminated

Today's Extremes

State Highs State Lows

Community

WunderPhotos

Upload Photos

1,928,220 photos uploaded!

WunderBlog® & News

Nearby

Air Quality

  Air Quality AQ Index Pollutant
Not available.

Snow Depth

Station Depth Elevation

Earthquake Activity

City Distance Mag. Time & Date
Minimum magnitude displayed is 2.5.

Coastal Water Temperatures

Place Temperature

Stations

Nearby Weather Stations

Station Location Temp. Windchill Dew Point Humidity Wind Precip. Elev Updated Type
                   

Watches & Warnings

There are currently no watches in effect.